sensor_id;sensor_type;location;lat;lon;timestamp;P1;durP1;ratioP1;P2;durP2;ratioP2
1336;SDS011;662;48.814;9.318;2023-07-30T00:01:57;2.90;;;2.67;;
1336;SDS011;662;48.814;9.318;2023-07-30T00:04:24;2.03;;;1.83;;
1336;SDS011;662;48.814;9.318;2023-07-30T00:06:50;2.30;;;1.50;;
1336;SDS011;662;48.814;9.318;2023-07-30T00:09:15;1.40;;;1.30;;
1336;SDS011;662;48.814;9.318;2023-07-30T00:11:41;2.70;;;1.47;;
1336;SDS011;662;48.814;9.318;2023-07-30T00:14:07;3.83;;;1.70;;
1336;SDS011;662;48.814;9.318;2023-07-30T00:16:32;2.50;;;1.67;;
1336;SDS011;662;48.814;9.318;2023-07-30T00:18:58;1.63;;;1.30;;
1336;SDS011;662;48.814;9.318;2023-07-30T00:21:24;1.93;;;1.20;;
1336;SDS011;662;48.814;9.318;2023-07-30T00:23:49;1.40;;;1.30;;
1336;SDS011;662;48.814;9.318;2023-07-30T00:26:15;3.97;;;1.80;;
1336;SDS011;662;48.814;9.318;2023-07-30T00:28:40;1.07;;;1.07;;
1336;SDS011;662;48.814;9.318;2023-07-30T00:31:06;1.30;;;1.20;;
1336;SDS011;662;48.814;9.318;2023-07-30T00:33:32;1.40;;;1.30;;
1336;SDS011;662;48.814;9.318;2023-07-30T00:35:57;1.60;;;1.50;;
1336;SDS011;662;48.814;9.318;2023-07-30T00:38:23;1.63;;;1.53;;
1336;SDS011;662;48.814;9.318;2023-07-30T00:40:49;1.63;;;1.43;;
1336;SDS011;662;48.814;9.318;2023-07-30T00:43:14;1.63;;;1.20;;
1336;SDS011;662;48.814;9.318;2023-07-30T00:45:41;1.60;;;1.43;;
1336;SDS011;662;48.814;9.318;2023-07-30T00:48:09;1.63;;;1.23;;
1336;SDS011;662;48.814;9.318;2023-07-30T00:50:35;1.27;;;1.17;;
1336;SDS011;662;48.814;9.318;2023-07-30T00:53:01;1.63;;;1.53;;
1336;SDS011;662;48.814;9.318;2023-07-30T00:55:27;1.33;;;1.10;;
1336;SDS011;662;48.814;9.318;2023-07-30T00:57:53;3.50;;;1.20;;
1336;SDS011;662;48.814;9.318;2023-07-30T01:00:18;1.60;;;1.50;;
1336;SDS011;662;48.814;9.318;2023-07-30T01:02:45;1.40;;;1.30;;
1336;SDS011;662;48.814;9.318;2023-07-30T01:05:10;1.20;;;1.10;;
1336;SDS011;662;48.814;9.318;2023-07-30T01:07:36;1.80;;;1.70;;
1336;SDS011;662;48.814;9.318;2023-07-30T01:10:02;1.67;;;1.23;;
1336;SDS011;662;48.814;9.318;2023-07-30T01:12:28;1.90;;;1.70;;
1336;SDS011;662;48.814;9.318;2023-07-30T01:14:56;2.03;;;1.83;;
1336;SDS011;662;48.814;9.318;2023-07-30T01:17:23;1.90;;;1.80;;
1336;SDS011;662;48.814;9.318;2023-07-30T01:19:49;1.73;;;1.50;;
1336;SDS011;662;48.814;9.318;2023-07-30T01:22:14;2.30;;;2.07;;
1336;SDS011;662;48.814;9.318;2023-07-30T01:24:41;1.80;;;1.37;;
1336;SDS011;662;48.814;9.318;2023-07-30T01:27:07;2.43;;;1.70;;
1336;SDS011;662;48.814;9.318;2023-07-30T01:29:45;1.80;;;1.70;;
1336;SDS011;662;48.814;9.318;2023-07-30T01:32:20;3.03;;;2.40;;
1336;SDS011;662;48.814;9.318;2023-07-30T01:34:49;2.87;;;2.57;;
1336;SDS011;662;48.814;9.318;2023-07-30T01:37:17;2.90;;;2.60;;
1336;SDS011;662;48.814;9.318;2023-07-30T01:39:43;2.30;;;2.10;;
1336;SDS011;662;48.814;9.318;2023-07-30T01:42:13;3.97;;;2.27;;
1336;SDS011;662;48.814;9.318;2023-07-30T01:44:39;3.50;;;2.00;;
1336;SDS011;662;48.814;9.318;2023-07-30T01:47:05;2.40;;;2.10;;
1336;SDS011;662;48.814;9.318;2023-07-30T01:49:31;2.87;;;1.43;;
1336;SDS011;662;48.814;9.318;2023-07-30T01:51:56;1.83;;;1.60;;
1336;SDS011;662;48.814;9.318;2023-07-30T01:54:22;1.90;;;1.80;;
1336;SDS011;662;48.814;9.318;2023-07-30T01:56:48;1.87;;;1.73;;
1336;SDS011;662;48.814;9.318;2023-07-30T01:59:13;2.30;;;1.73;;
1336;SDS011;662;48.814;9.318;2023-07-30T02:01:40;2.00;;;1.83;;
1336;SDS011;662;48.814;9.318;2023-07-30T02:04:06;2.67;;;1.87;;
1336;SDS011;662;48.814;9.318;2023-07-30T02:06:32;2.17;;;1.87;;
1336;SDS011;662;48.814;9.318;2023-07-30T02:08:57;1.87;;;1.77;;
1336;SDS011;662;48.814;9.318;2023-07-30T02:11:23;1.70;;;1.60;;
1336;SDS011;662;48.814;9.318;2023-07-30T02:13:49;1.90;;;1.70;;
1336;SDS011;662;48.814;9.318;2023-07-30T02:16:14;1.70;;;1.60;;
1336;SDS011;662;48.814;9.318;2023-07-30T02:18:40;1.77;;;1.63;;
1336;SDS011;662;48.814;9.318;2023-07-30T02:21:06;1.70;;;1.60;;
1336;SDS011;662;48.814;9.318;2023-07-30T02:23:31;2.00;;;1.80;;
1336;SDS011;662;48.814;9.318;2023-07-30T02:25:57;1.30;;;1.20;;
1336;SDS011;662;48.814;9.318;2023-07-30T02:28:23;1.73;;;1.53;;
1336;SDS011;662;48.814;9.318;2023-07-30T02:30:48;3.10;;;1.70;;
1336;SDS011;662;48.814;9.318;2023-07-30T02:33:14;1.60;;;1.43;;
1336;SDS011;662;48.814;9.318;2023-07-30T02:35:39;5.53;;;1.90;;
1336;SDS011;662;48.814;9.318;2023-07-30T02:38:05;1.67;;;1.53;;
1336;SDS011;662;48.814;9.318;2023-07-30T02:40:31;1.80;;;1.60;;
1336;SDS011;662;48.814;9.318;2023-07-30T02:42:56;1.77;;;1.47;;
1336;SDS011;662;48.814;9.318;2023-07-30T02:45:22;2.10;;;1.90;;
1336;SDS011;662;48.814;9.318;2023-07-30T02:47:47;2.83;;;1.80;;
1336;SDS011;662;48.814;9.318;2023-07-30T02:50:13;3.43;;;1.70;;
1336;SDS011;662;48.814;9.318;2023-07-30T02:52:39;2.37;;;2.17;;
1336;SDS011;662;48.814;9.318;2023-07-30T02:55:04;1.70;;;1.60;;
1336;SDS011;662;48.814;9.318;2023-07-30T02:57:30;2.80;;;1.63;;
1336;SDS011;662;48.814;9.318;2023-07-30T02:59:56;1.50;;;1.40;;
1336;SDS011;662;48.814;9.318;2023-07-30T03:02:22;2.20;;;2.00;;
1336;SDS011;662;48.814;9.318;2023-07-30T03:04:47;1.73;;;1.63;;
1336;SDS011;662;48.814;9.318;2023-07-30T03:07:13;2.40;;;1.80;;
1336;SDS011;662;48.814;9.318;2023-07-30T03:09:39;3.50;;;2.03;;
1336;SDS011;662;48.814;9.318;2023-07-30T03:12:04;2.73;;;1.77;;
1336;SDS011;662;48.814;9.318;2023-07-30T03:14:30;2.70;;;2.00;;
1336;SDS011;662;48.814;9.318;2023-07-30T03:16:56;2.83;;;2.33;;
1336;SDS011;662;48.814;9.318;2023-07-30T03:19:21;3.70;;;2.40;;
1336;SDS011;662;48.814;9.318;2023-07-30T03:21:47;2.30;;;2.10;;
1336;SDS011;662;48.814;9.318;2023-07-30T03:24:13;2.53;;;2.10;;
1336;SDS011;662;48.814;9.318;2023-07-30T03:26:38;4.10;;;2.20;;
1336;SDS011;662;48.814;9.318;2023-07-30T03:29:04;2.17;;;1.90;;
1336;SDS011;662;48.814;9.318;2023-07-30T03:31:29;1.90;;;1.80;;
1336;SDS011;662;48.814;9.318;2023-07-30T03:33:55;3.20;;;2.60;;
1336;SDS011;662;48.814;9.318;2023-07-30T03:36:21;2.40;;;2.10;;
1336;SDS011;662;48.814;9.318;2023-07-30T03:38:46;2.83;;;2.40;;
1336;SDS011;662;48.814;9.318;2023-07-30T03:41:12;2.60;;;2.40;;
1336;SDS011;662;48.814;9.318;2023-07-30T03:43:37;6.47;;;2.40;;
1336;SDS011;662;48.814;9.318;2023-07-30T03:46:03;2.10;;;1.97;;
1336;SDS011;662;48.814;9.318;2023-07-30T03:48:29;2.40;;;1.93;;
1336;SDS011;662;48.814;9.318;2023-07-30T03:50:54;1.83;;;1.73;;
1336;SDS011;662;48.814;9.318;2023-07-30T03:53:21;6.83;;;2.20;;
1336;SDS011;662;48.814;9.318;2023-07-30T03:55:47;2.50;;;2.30;;
1336;SDS011;662;48.814;9.318;2023-07-30T03:58:13;2.33;;;2.13;;
1336;SDS011;662;48.814;9.318;2023-07-30T04:00:39;2.87;;;2.67;;
1336;SDS011;662;48.814;9.318;2023-07-30T04:03:05;2.73;;;2.53;;
1336;SDS011;662;48.814;9.318;2023-07-30T04:05:31;2.80;;;2.47;;
1336;SDS011;662;48.814;9.318;2023-07-30T04:07:56;2.53;;;2.33;;
1336;SDS011;662;48.814;9.318;2023-07-30T04:10:22;2.70;;;2.20;;
1336;SDS011;662;48.814;9.318;2023-07-30T04:12:48;3.07;;;1.97;;
1336;SDS011;662;48.814;9.318;2023-07-30T04:15:14;6.80;;;2.10;;
1336;SDS011;662;48.814;9.318;2023-07-30T04:17:40;2.33;;;2.10;;
1336;SDS011;662;48.814;9.318;2023-07-30T04:20:06;2.80;;;2.60;;
1336;SDS011;662;48.814;9.318;2023-07-30T04:22:34;2.63;;;2.30;;
1336;SDS011;662;48.814;9.318;2023-07-30T04:25:00;2.33;;;2.13;;
1336;SDS011;662;48.814;9.318;2023-07-30T04:27:26;2.30;;;2.10;;
1336;SDS011;662;48.814;9.318;2023-07-30T04:29:52;4.10;;;2.17;;
1336;SDS011;662;48.814;9.318;2023-07-30T04:32:17;4.73;;;2.43;;
1336;SDS011;662;48.814;9.318;2023-07-30T04:34:43;2.90;;;2.17;;
1336;SDS011;662;48.814;9.318;2023-07-30T04:37:08;2.73;;;2.13;;
1336;SDS011;662;48.814;9.318;2023-07-30T04:39:35;3.53;;;2.37;;
1336;SDS011;662;48.814;9.318;2023-07-30T04:42:01;2.63;;;2.43;;
1336;SDS011;662;48.814;9.318;2023-07-30T04:44:27;3.77;;;2.40;;
1336;SDS011;662;48.814;9.318;2023-07-30T04:46:53;2.43;;;2.23;;
1336;SDS011;662;48.814;9.318;2023-07-30T04:49:18;2.13;;;1.93;;
1336;SDS011;662;48.814;9.318;2023-07-30T04:51:44;2.40;;;2.20;;
1336;SDS011;662;48.814;9.318;2023-07-30T04:54:09;2.30;;;2.10;;
1336;SDS011;662;48.814;9.318;2023-07-30T04:56:35;2.60;;;2.20;;
1336;SDS011;662;48.814;9.318;2023-07-30T04:59:01;2.40;;;2.20;;
1336;SDS011;662;48.814;9.318;2023-07-30T05:01:27;3.23;;;2.50;;
1336;SDS011;662;48.814;9.318;2023-07-30T05:03:53;2.77;;;2.47;;
1336;SDS011;662;48.814;9.318;2023-07-30T05:06:18;2.87;;;1.97;;
1336;SDS011;662;48.814;9.318;2023-07-30T05:08:44;2.40;;;2.20;;
1336;SDS011;662;48.814;9.318;2023-07-30T05:11:09;4.00;;;3.70;;
1336;SDS011;662;48.814;9.318;2023-07-30T05:13:35;3.93;;;2.60;;
1336;SDS011;662;48.814;9.318;2023-07-30T05:16:01;2.90;;;2.00;;
1336;SDS011;662;48.814;9.318;2023-07-30T05:18:27;2.93;;;2.63;;
1336;SDS011;662;48.814;9.318;2023-07-30T05:20:52;5.47;;;2.10;;
1336;SDS011;662;48.814;9.318;2023-07-30T05:23:19;6.33;;;2.30;;
1336;SDS011;662;48.814;9.318;2023-07-30T05:25:50;3.73;;;2.60;;
1336;SDS011;662;48.814;9.318;2023-07-30T05:28:16;2.60;;;2.27;;
1336;SDS011;662;48.814;9.318;2023-07-30T05:30:42;6.20;;;2.93;;
1336;SDS011;662;48.814;9.318;2023-07-30T05:33:07;8.53;;;2.70;;
1336;SDS011;662;48.814;9.318;2023-07-30T05:35:33;3.73;;;2.80;;
1336;SDS011;662;48.814;9.318;2023-07-30T05:37:59;2.30;;;2.10;;
1336;SDS011;662;48.814;9.318;2023-07-30T05:40:24;2.70;;;2.40;;
1336;SDS011;662;48.814;9.318;2023-07-30T05:42:50;2.73;;;2.53;;
1336;SDS011;662;48.814;9.318;2023-07-30T05:45:16;3.13;;;2.83;;
1336;SDS011;662;48.814;9.318;2023-07-30T05:47:41;2.40;;;2.20;;
1336;SDS011;662;48.814;9.318;2023-07-30T05:50:07;2.77;;;2.50;;
1336;SDS011;662;48.814;9.318;2023-07-30T05:52:33;4.27;;;2.87;;
1336;SDS011;662;48.814;9.318;2023-07-30T05:54:59;3.10;;;2.80;;
1336;SDS011;662;48.814;9.318;2023-07-30T05:57:24;5.97;;;2.70;;
1336;SDS011;662;48.814;9.318;2023-07-30T05:59:50;2.63;;;2.43;;
1336;SDS011;662;48.814;9.318;2023-07-30T06:02:16;2.50;;;2.30;;
1336;SDS011;662;48.814;9.318;2023-07-30T06:04:42;2.30;;;2.10;;
1336;SDS011;662;48.814;9.318;2023-07-30T06:07:08;2.57;;;1.97;;
1336;SDS011;662;48.814;9.318;2023-07-30T06:09:34;1.90;;;1.80;;
1336;SDS011;662;48.814;9.318;2023-07-30T06:12:00;2.20;;;2.00;;
1336;SDS011;662;48.814;9.318;2023-07-30T06:14:26;1.90;;;1.80;;
1336;SDS011;662;48.814;9.318;2023-07-30T06:16:52;1.90;;;1.70;;
1336;SDS011;662;48.814;9.318;2023-07-30T06:19:18;2.27;;;2.07;;
1336;SDS011;662;48.814;9.318;2023-07-30T06:21:44;2.17;;;1.97;;
1336;SDS011;662;48.814;9.318;2023-07-30T06:24:10;2.00;;;1.87;;
1336;SDS011;662;48.814;9.318;2023-07-30T06:26:35;2.17;;;1.77;;
1336;SDS011;662;48.814;9.318;2023-07-30T06:29:01;2.40;;;2.20;;
1336;SDS011;662;48.814;9.318;2023-07-30T06:31:26;2.23;;;1.80;;
1336;SDS011;662;48.814;9.318;2023-07-30T06:33:52;1.60;;;1.50;;
1336;SDS011;662;48.814;9.318;2023-07-30T06:36:18;1.80;;;1.70;;
1336;SDS011;662;48.814;9.318;2023-07-30T06:38:43;1.70;;;1.60;;
1336;SDS011;662;48.814;9.318;2023-07-30T06:41:09;2.80;;;1.80;;
1336;SDS011;662;48.814;9.318;2023-07-30T06:43:35;4.90;;;2.10;;
1336;SDS011;662;48.814;9.318;2023-07-30T06:46:00;2.70;;;2.33;;
1336;SDS011;662;48.814;9.318;2023-07-30T06:48:26;2.20;;;2.00;;
1336;SDS011;662;48.814;9.318;2023-07-30T06:50:52;2.67;;;2.47;;
1336;SDS011;662;48.814;9.318;2023-07-30T06:53:18;2.70;;;2.50;;
1336;SDS011;662;48.814;9.318;2023-07-30T06:55:43;2.40;;;2.20;;
1336;SDS011;662;48.814;9.318;2023-07-30T06:58:09;2.27;;;2.07;;
1336;SDS011;662;48.814;9.318;2023-07-30T07:00:36;2.97;;;2.67;;
1336;SDS011;662;48.814;9.318;2023-07-30T07:03:01;3.27;;;2.47;;
1336;SDS011;662;48.814;9.318;2023-07-30T07:05:27;2.20;;;2.00;;
1336;SDS011;662;48.814;9.318;2023-07-30T07:07:53;2.23;;;2.10;;
1336;SDS011;662;48.814;9.318;2023-07-30T07:10:18;2.50;;;2.30;;
1336;SDS011;662;48.814;9.318;2023-07-30T07:12:44;2.70;;;2.43;;
1336;SDS011;662;48.814;9.318;2023-07-30T07:15:12;2.60;;;2.40;;
1336;SDS011;662;48.814;9.318;2023-07-30T07:17:38;2.10;;;1.90;;
1336;SDS011;662;48.814;9.318;2023-07-30T07:20:05;2.30;;;2.10;;
1336;SDS011;662;48.814;9.318;2023-07-30T07:22:32;2.23;;;2.03;;
1336;SDS011;662;48.814;9.318;2023-07-30T07:24:58;2.30;;;2.10;;
1336;SDS011;662;48.814;9.318;2023-07-30T07:27:24;2.30;;;2.10;;
1336;SDS011;662;48.814;9.318;2023-07-30T07:29:50;2.27;;;1.80;;
1336;SDS011;662;48.814;9.318;2023-07-30T07:32:16;2.10;;;1.90;;
1336;SDS011;662;48.814;9.318;2023-07-30T07:34:45;3.40;;;1.80;;
1336;SDS011;662;48.814;9.318;2023-07-30T07:37:12;2.30;;;1.83;;
1336;SDS011;662;48.814;9.318;2023-07-30T07:39:40;1.97;;;1.87;;
1336;SDS011;662;48.814;9.318;2023-07-30T07:42:06;2.03;;;1.87;;
1336;SDS011;662;48.814;9.318;2023-07-30T07:44:32;1.80;;;1.70;;
1336;SDS011;662;48.814;9.318;2023-07-30T07:46:57;2.50;;;2.20;;
1336;SDS011;662;48.814;9.318;2023-07-30T07:49:23;2.40;;;1.70;;
1336;SDS011;662;48.814;9.318;2023-07-30T07:51:49;2.10;;;1.83;;
1336;SDS011;662;48.814;9.318;2023-07-30T07:54:14;3.50;;;1.77;;
1336;SDS011;662;48.814;9.318;2023-07-30T07:56:40;1.90;;;1.80;;
1336;SDS011;662;48.814;9.318;2023-07-30T07:59:05;2.07;;;1.67;;
1336;SDS011;662;48.814;9.318;2023-07-30T08:01:31;2.03;;;1.83;;
1336;SDS011;662;48.814;9.318;2023-07-30T08:03:56;2.57;;;1.80;;
1336;SDS011;662;48.814;9.318;2023-07-30T08:06:22;1.40;;;1.30;;
1336;SDS011;662;48.814;9.318;2023-07-30T08:08:48;1.73;;;1.57;;
1336;SDS011;662;48.814;9.318;2023-07-30T08:11:16;1.43;;;1.33;;
1336;SDS011;662;48.814;9.318;2023-07-30T08:13:41;1.57;;;1.40;;
1336;SDS011;662;48.814;9.318;2023-07-30T08:16:07;1.70;;;1.60;;
1336;SDS011;662;48.814;9.318;2023-07-30T08:18:32;3.13;;;1.70;;
1336;SDS011;662;48.814;9.318;2023-07-30T08:20:59;1.60;;;1.50;;
1336;SDS011;662;48.814;9.318;2023-07-30T08:23:25;1.80;;;1.53;;
1336;SDS011;662;48.814;9.318;2023-07-30T08:25:51;2.13;;;1.70;;
1336;SDS011;662;48.814;9.318;2023-07-30T08:28:16;2.33;;;1.87;;
1336;SDS011;662;48.814;9.318;2023-07-30T08:30:42;2.10;;;1.90;;
1336;SDS011;662;48.814;9.318;2023-07-30T08:33:07;1.67;;;1.50;;
1336;SDS011;662;48.814;9.318;2023-07-30T08:35:33;1.70;;;1.60;;
1336;SDS011;662;48.814;9.318;2023-07-30T08:37:59;2.00;;;1.80;;
1336;SDS011;662;48.814;9.318;2023-07-30T08:40:24;1.90;;;1.80;;
1336;SDS011;662;48.814;9.318;2023-07-30T08:42:50;1.37;;;1.27;;
1336;SDS011;662;48.814;9.318;2023-07-30T08:45:17;1.97;;;1.77;;
1336;SDS011;662;48.814;9.318;2023-07-30T08:47:42;2.37;;;1.90;;
1336;SDS011;662;48.814;9.318;2023-07-30T08:50:09;1.60;;;1.40;;
1336;SDS011;662;48.814;9.318;2023-07-30T08:52:35;1.40;;;1.10;;
1336;SDS011;662;48.814;9.318;2023-07-30T08:55:04;1.40;;;1.30;;
1336;SDS011;662;48.814;9.318;2023-07-30T08:57:31;3.23;;;1.33;;
1336;SDS011;662;48.814;9.318;2023-07-30T09:00:05;1.80;;;1.33;;
1336;SDS011;662;48.814;9.318;2023-07-30T09:02:39;1.57;;;1.47;;
1336;SDS011;662;48.814;9.318;2023-07-30T09:05:12;2.23;;;1.63;;
1336;SDS011;662;48.814;9.318;2023-07-30T09:07:38;1.50;;;1.40;;
1336;SDS011;662;48.814;9.318;2023-07-30T09:10:04;1.67;;;1.57;;
1336;SDS011;662;48.814;9.318;2023-07-30T09:12:34;3.80;;;1.73;;
1336;SDS011;662;48.814;9.318;2023-07-30T09:15:03;1.90;;;1.70;;
1336;SDS011;662;48.814;9.318;2023-07-30T09:17:30;3.17;;;1.90;;
1336;SDS011;662;48.814;9.318;2023-07-30T09:19:58;1.83;;;1.70;;
1336;SDS011;662;48.814;9.318;2023-07-30T09:22:27;3.30;;;2.00;;
1336;SDS011;662;48.814;9.318;2023-07-30T09:24:55;1.90;;;1.80;;
1336;SDS011;662;48.814;9.318;2023-07-30T09:27:22;1.80;;;1.70;;
1336;SDS011;662;48.814;9.318;2023-07-30T09:29:51;2.50;;;2.07;;
1336;SDS011;662;48.814;9.318;2023-07-30T09:32:18;1.60;;;1.50;;
1336;SDS011;662;48.814;9.318;2023-07-30T09:34:44;1.90;;;1.80;;
1336;SDS011;662;48.814;9.318;2023-07-30T09:37:11;1.90;;;1.80;;
1336;SDS011;662;48.814;9.318;2023-07-30T09:39:39;1.73;;;1.63;;
1336;SDS011;662;48.814;9.318;2023-07-30T09:42:06;2.17;;;1.97;;
1336;SDS011;662;48.814;9.318;2023-07-30T09:44:33;1.80;;;1.70;;
1336;SDS011;662;48.814;9.318;2023-07-30T09:46:58;2.33;;;1.70;;
1336;SDS011;662;48.814;9.318;2023-07-30T09:49:31;2.00;;;1.90;;
1336;SDS011;662;48.814;9.318;2023-07-30T09:51:57;1.70;;;1.60;;
1336;SDS011;662;48.814;9.318;2023-07-30T09:54:23;2.00;;;1.90;;
1336;SDS011;662;48.814;9.318;2023-07-30T09:56:49;1.80;;;1.70;;
1336;SDS011;662;48.814;9.318;2023-07-30T09:59:14;3.03;;;2.73;;
1336;SDS011;662;48.814;9.318;2023-07-30T10:01:41;1.70;;;1.60;;
1336;SDS011;662;48.814;9.318;2023-07-30T10:04:14;3.43;;;1.90;;
1336;SDS011;662;48.814;9.318;2023-07-30T10:06:45;2.20;;;2.00;;
1336;SDS011;662;48.814;9.318;2023-07-30T10:09:27;2.10;;;1.93;;
1336;SDS011;662;48.814;9.318;2023-07-30T10:11:55;1.80;;;1.70;;
1336;SDS011;662;48.814;9.318;2023-07-30T10:14:28;3.53;;;1.80;;
1336;SDS011;662;48.814;9.318;2023-07-30T10:16:55;2.07;;;1.70;;
1336;SDS011;662;48.814;9.318;2023-07-30T10:19:24;2.80;;;1.80;;
1336;SDS011;662;48.814;9.318;2023-07-30T10:21:51;2.47;;;2.00;;
1336;SDS011;662;48.814;9.318;2023-07-30T10:24:18;2.03;;;1.87;;
1336;SDS011;662;48.814;9.318;2023-07-30T10:26:44;2.57;;;2.07;;
1336;SDS011;662;48.814;9.318;2023-07-30T10:29:19;2.30;;;2.10;;
1336;SDS011;662;48.814;9.318;2023-07-30T10:31:51;2.77;;;2.13;;
1336;SDS011;662;48.814;9.318;2023-07-30T10:34:17;3.00;;;1.80;;
1336;SDS011;662;48.814;9.318;2023-07-30T10:36:43;2.40;;;1.97;;
1336;SDS011;662;48.814;9.318;2023-07-30T10:41:38;1.90;;;1.70;;
1336;SDS011;662;48.814;9.318;2023-07-30T10:44:04;2.23;;;2.03;;
1336;SDS011;662;48.814;9.318;2023-07-30T10:46:29;1.97;;;1.87;;
1336;SDS011;662;48.814;9.318;2023-07-30T10:48:55;2.00;;;1.90;;
1336;SDS011;662;48.814;9.318;2023-07-30T10:51:20;1.97;;;1.80;;
1336;SDS011;662;48.814;9.318;2023-07-30T10:53:48;2.17;;;1.97;;
1336;SDS011;662;48.814;9.318;2023-07-30T10:56:15;2.20;;;2.00;;
1336;SDS011;662;48.814;9.318;2023-07-30T10:58:42;2.30;;;2.10;;
1336;SDS011;662;48.814;9.318;2023-07-30T11:01:13;2.10;;;2.00;;
1336;SDS011;662;48.814;9.318;2023-07-30T11:03:39;1.87;;;1.50;;
1336;SDS011;662;48.814;9.318;2023-07-30T11:06:04;2.80;;;1.73;;
1336;SDS011;662;48.814;9.318;2023-07-30T11:08:37;2.50;;;1.83;;
1336;SDS011;662;48.814;9.318;2023-07-30T11:11:04;1.43;;;1.33;;
1336;SDS011;662;48.814;9.318;2023-07-30T11:13:49;1.50;;;1.40;;
1336;SDS011;662;48.814;9.318;2023-07-30T11:16:15;2.00;;;1.80;;
1336;SDS011;662;48.814;9.318;2023-07-30T11:18:41;2.63;;;1.77;;
1336;SDS011;662;48.814;9.318;2023-07-30T11:21:08;4.10;;;2.00;;
1336;SDS011;662;48.814;9.318;2023-07-30T11:23:36;2.00;;;1.57;;
1336;SDS011;662;48.814;9.318;2023-07-30T11:26:03;2.20;;;1.60;;
1336;SDS011;662;48.814;9.318;2023-07-30T11:28:34;1.97;;;1.70;;
1336;SDS011;662;48.814;9.318;2023-07-30T11:31:01;3.83;;;1.83;;
1336;SDS011;662;48.814;9.318;2023-07-30T11:33:28;4.10;;;1.43;;
1336;SDS011;662;48.814;9.318;2023-07-30T11:35:55;2.30;;;2.10;;
1336;SDS011;662;48.814;9.318;2023-07-30T11:38:25;2.00;;;1.80;;
1336;SDS011;662;48.814;9.318;2023-07-30T11:40:51;2.10;;;1.90;;
1336;SDS011;662;48.814;9.318;2023-07-30T11:43:18;2.50;;;2.03;;
1336;SDS011;662;48.814;9.318;2023-07-30T11:45:45;2.10;;;1.90;;
1336;SDS011;662;48.814;9.318;2023-07-30T11:48:10;1.70;;;1.50;;
1336;SDS011;662;48.814;9.318;2023-07-30T11:50:50;1.73;;;1.60;;
1336;SDS011;662;48.814;9.318;2023-07-30T11:53:16;2.40;;;1.73;;
1336;SDS011;662;48.814;9.318;2023-07-30T11:55:43;1.67;;;1.57;;
1336;SDS011;662;48.814;9.318;2023-07-30T11:58:10;1.50;;;1.40;;
1336;SDS011;662;48.814;9.318;2023-07-30T12:00:38;1.60;;;1.50;;
1336;SDS011;662;48.814;9.318;2023-07-30T12:03:09;1.63;;;1.53;;
1336;SDS011;662;48.814;9.318;2023-07-30T12:05:37;1.60;;;1.50;;
1336;SDS011;662;48.814;9.318;2023-07-30T12:08:04;2.60;;;2.10;;
1336;SDS011;662;48.814;9.318;2023-07-30T12:10:46;1.73;;;1.30;;
1336;SDS011;662;48.814;9.318;2023-07-30T12:13:17;2.63;;;1.60;;
1336;SDS011;662;48.814;9.318;2023-07-30T12:15:52;1.63;;;1.53;;
1336;SDS011;662;48.814;9.318;2023-07-30T12:18:19;1.60;;;1.50;;
1336;SDS011;662;48.814;9.318;2023-07-30T12:20:48;1.97;;;1.77;;
1336;SDS011;662;48.814;9.318;2023-07-30T12:23:15;2.40;;;1.60;;
1336;SDS011;662;48.814;9.318;2023-07-30T12:25:41;1.70;;;1.60;;
1336;SDS011;662;48.814;9.318;2023-07-30T12:28:07;2.07;;;1.87;;
1336;SDS011;662;48.814;9.318;2023-07-30T12:30:32;1.50;;;1.40;;
1336;SDS011;662;48.814;9.318;2023-07-30T12:33:00;1.90;;;1.80;;
1336;SDS011;662;48.814;9.318;2023-07-30T12:35:26;1.77;;;1.67;;
1336;SDS011;662;48.814;9.318;2023-07-30T12:37:51;2.43;;;1.37;;
1336;SDS011;662;48.814;9.318;2023-07-30T12:40:17;1.90;;;1.80;;
1336;SDS011;662;48.814;9.318;2023-07-30T12:42:43;2.10;;;1.53;;
1336;SDS011;662;48.814;9.318;2023-07-30T12:45:09;1.90;;;1.70;;
1336;SDS011;662;48.814;9.318;2023-07-30T12:47:35;1.63;;;1.53;;
1336;SDS011;662;48.814;9.318;2023-07-30T12:50:02;1.47;;;1.30;;
1336;SDS011;662;48.814;9.318;2023-07-30T12:52:28;1.70;;;1.53;;
1336;SDS011;662;48.814;9.318;2023-07-30T12:54:54;5.27;;;1.70;;
1336;SDS011;662;48.814;9.318;2023-07-30T12:57:19;1.80;;;1.70;;
1336;SDS011;662;48.814;9.318;2023-07-30T12:59:46;1.53;;;1.43;;
1336;SDS011;662;48.814;9.318;2023-07-30T13:02:11;1.70;;;1.60;;
1336;SDS011;662;48.814;9.318;2023-07-30T13:04:37;1.67;;;1.57;;
1336;SDS011;662;48.814;9.318;2023-07-30T13:07:02;2.70;;;1.70;;
1336;SDS011;662;48.814;9.318;2023-07-30T13:09:28;1.60;;;1.50;;
1336;SDS011;662;48.814;9.318;2023-07-30T13:11:54;1.67;;;1.57;;
1336;SDS011;662;48.814;9.318;2023-07-30T13:14:19;1.83;;;1.57;;
1336;SDS011;662;48.814;9.318;2023-07-30T13:16:45;3.73;;;1.50;;
1336;SDS011;662;48.814;9.318;2023-07-30T13:19:11;2.07;;;1.87;;
1336;SDS011;662;48.814;9.318;2023-07-30T13:21:37;1.90;;;1.53;;
1336;SDS011;662;48.814;9.318;2023-07-30T13:24:02;3.23;;;1.30;;
1336;SDS011;662;48.814;9.318;2023-07-30T13:26:28;1.30;;;1.20;;
1336;SDS011;662;48.814;9.318;2023-07-30T13:28:54;1.73;;;1.53;;
1336;SDS011;662;48.814;9.318;2023-07-30T13:31:19;1.27;;;1.17;;
1336;SDS011;662;48.814;9.318;2023-07-30T13:33:45;2.13;;;1.53;;
1336;SDS011;662;48.814;9.318;2023-07-30T13:36:12;1.60;;;1.10;;
1336;SDS011;662;48.814;9.318;2023-07-30T13:38:38;1.60;;;1.50;;
1336;SDS011;662;48.814;9.318;2023-07-30T13:41:04;2.33;;;1.73;;
1336;SDS011;662;48.814;9.318;2023-07-30T13:43:30;3.60;;;1.87;;
1336;SDS011;662;48.814;9.318;2023-07-30T13:45:56;2.23;;;1.80;;
1336;SDS011;662;48.814;9.318;2023-07-30T13:48:23;5.77;;;1.70;;
1336;SDS011;662;48.814;9.318;2023-07-30T13:50:50;1.93;;;1.60;;
1336;SDS011;662;48.814;9.318;2023-07-30T13:53:16;2.53;;;1.80;;
1336;SDS011;662;48.814;9.318;2023-07-30T13:55:42;1.40;;;1.30;;
1336;SDS011;662;48.814;9.318;2023-07-30T13:58:08;2.47;;;1.43;;
1336;SDS011;662;48.814;9.318;2023-07-30T14:00:34;1.53;;;1.43;;
1336;SDS011;662;48.814;9.318;2023-07-30T14:03:00;2.33;;;1.30;;
1336;SDS011;662;48.814;9.318;2023-07-30T14:05:25;1.53;;;1.43;;
1336;SDS011;662;48.814;9.318;2023-07-30T14:07:53;1.80;;;1.43;;
1336;SDS011;662;48.814;9.318;2023-07-30T14:10:21;2.43;;;1.60;;
1336;SDS011;662;48.814;9.318;2023-07-30T14:12:47;1.70;;;1.60;;
1336;SDS011;662;48.814;9.318;2023-07-30T14:15:14;1.50;;;1.40;;
1336;SDS011;662;48.814;9.318;2023-07-30T14:17:42;2.67;;;1.67;;
1336;SDS011;662;48.814;9.318;2023-07-30T14:20:08;3.70;;;1.80;;
1336;SDS011;662;48.814;9.318;2023-07-30T14:22:34;4.20;;;1.10;;
1336;SDS011;662;48.814;9.318;2023-07-30T14:25:01;2.00;;;1.47;;
1336;SDS011;662;48.814;9.318;2023-07-30T14:27:29;1.70;;;1.40;;
1336;SDS011;662;48.814;9.318;2023-07-30T14:29:55;1.43;;;1.33;;
1336;SDS011;662;48.814;9.318;2023-07-30T14:32:21;2.50;;;1.63;;
1336;SDS011;662;48.814;9.318;2023-07-30T14:34:47;3.10;;;2.03;;
1336;SDS011;662;48.814;9.318;2023-07-30T14:37:14;1.70;;;1.27;;
1336;SDS011;662;48.814;9.318;2023-07-30T14:39:39;1.80;;;1.20;;
1336;SDS011;662;48.814;9.318;2023-07-30T14:42:06;2.40;;;1.30;;
1336;SDS011;662;48.814;9.318;2023-07-30T14:44:32;1.53;;;1.27;;
1336;SDS011;662;48.814;9.318;2023-07-30T14:46:58;2.57;;;1.30;;
1336;SDS011;662;48.814;9.318;2023-07-30T14:49:25;1.80;;;1.70;;
1336;SDS011;662;48.814;9.318;2023-07-30T14:51:51;1.67;;;1.40;;
1336;SDS011;662;48.814;9.318;2023-07-30T14:54:17;3.20;;;1.60;;
1336;SDS011;662;48.814;9.318;2023-07-30T14:56:45;1.60;;;1.30;;
1336;SDS011;662;48.814;9.318;2023-07-30T14:59:11;1.40;;;1.30;;
1336;SDS011;662;48.814;9.318;2023-07-30T15:01:36;4.07;;;1.43;;
1336;SDS011;662;48.814;9.318;2023-07-30T15:04:02;1.67;;;1.40;;
1336;SDS011;662;48.814;9.318;2023-07-30T15:06:31;1.57;;;1.47;;
1336;SDS011;662;48.814;9.318;2023-07-30T15:08:57;1.90;;;1.43;;
1336;SDS011;662;48.814;9.318;2023-07-30T15:11:23;3.23;;;1.47;;
1336;SDS011;662;48.814;9.318;2023-07-30T15:13:49;1.63;;;1.50;;
1336;SDS011;662;48.814;9.318;2023-07-30T15:16:15;1.77;;;1.50;;
1336;SDS011;662;48.814;9.318;2023-07-30T15:18:43;2.40;;;1.20;;
1336;SDS011;662;48.814;9.318;2023-07-30T15:21:09;2.20;;;1.73;;
1336;SDS011;662;48.814;9.318;2023-07-30T15:23:38;1.40;;;1.30;;
1336;SDS011;662;48.814;9.318;2023-07-30T15:26:04;2.20;;;1.40;;
1336;SDS011;662;48.814;9.318;2023-07-30T15:28:29;1.60;;;1.40;;